createdAt,value
2022-10-05T00:03:39.451Z,11.50
2022-10-05T00:08:41.795Z,11.48
2022-10-05T00:13:44.320Z,11.59
2022-10-05T00:18:52.115Z,11.61
2022-10-05T00:23:56.815Z,11.74
2022-10-05T00:28:59.320Z,11.63
2022-10-05T00:34:01.651Z,11.72
2022-10-05T00:39:04.277Z,11.79
2022-10-05T00:44:12.452Z,11.79
2022-10-05T00:49:35.207Z,11.91
2022-10-05T00:55:07.066Z,11.83
2022-10-05T01:00:14.667Z,11.91
2022-10-05T01:05:46.012Z,11.91
2022-10-05T01:10:49.614Z,11.83
2022-10-05T01:16:36.510Z,11.98
2022-10-05T01:21:54.917Z,11.98
2022-10-05T01:27:14.625Z,11.97
2022-10-05T01:32:37.450Z,11.97
2022-10-05T01:37:51.342Z,11.92
2022-10-05T01:43:25.127Z,12.01
2022-10-05T01:48:34.470Z,12.00
2022-10-05T01:54:24.790Z,11.97
2022-10-05T01:59:48.596Z,11.98
2022-10-05T02:05:07.768Z,11.91
2022-10-05T02:10:28.337Z,11.91
2022-10-05T02:15:36.341Z,11.84
2022-10-05T02:20:41.344Z,11.90
2022-10-05T02:25:46.275Z,11.91
2022-10-05T02:30:58.715Z,12.00
2022-10-05T02:36:03.548Z,12.02
2022-10-05T02:41:12.137Z,12.02
2022-10-05T02:46:26.279Z,11.95
2022-10-05T02:51:38.471Z,11.93
2022-10-05T02:57:02.561Z,11.91
2022-10-05T03:02:16.240Z,12.06
2022-10-05T03:07:30.037Z,12.02
2022-10-05T03:12:44.244Z,12.00
2022-10-05T03:18:05.768Z,12.07
2022-10-05T03:23:17.361Z,12.04
2022-10-05T03:28:31.896Z,12.12
2022-10-05T03:33:55.982Z,12.03
2022-10-05T03:39:16.886Z,12.08
2022-10-05T03:44:34.057Z,12.09
2022-10-05T03:50:12.006Z,12.03
2022-10-05T03:55:26.898Z,12.00
2022-10-05T04:00:31.477Z,11.99
2022-10-05T04:05:59.774Z,12.05
2022-10-05T04:11:05.739Z,11.97
2022-10-05T04:16:44.833Z,11.84
2022-10-05T04:22:06.473Z,11.82
2022-10-05T04:27:20.438Z,11.83
2022-10-05T04:32:31.392Z,11.73
2022-10-05T04:38:14.297Z,11.80
2022-10-05T04:43:28.278Z,11.81
2022-10-05T04:48:52.873Z,11.90
2022-10-05T04:53:58.537Z,11.92
2022-10-05T04:59:21.260Z,11.89
2022-10-05T05:04:58.430Z,11.94
2022-10-05T05:10:04.162Z,11.96
2022-10-05T05:15:47.155Z,12.14
2022-10-05T05:21:10.136Z,12.00
2022-10-05T05:26:24.545Z,12.00
2022-10-05T05:31:48.666Z,12.07
2022-10-05T05:37:02.230Z,12.01
2022-10-05T05:42:17.851Z,12.08
2022-10-05T05:47:29.665Z,12.01
2022-10-05T05:52:36.939Z,12.21
2022-10-05T05:57:42.319Z,12.32
2022-10-05T06:02:57.105Z,12.48
2022-10-05T06:08:06.626Z,12.77
2022-10-05T06:13:23.081Z,13.02
2022-10-05T06:18:26.309Z,13.40
2022-10-05T06:23:40.506Z,13.27
2022-10-05T06:28:43.757Z,13.34
2022-10-05T06:33:52.606Z,13.22
2022-10-05T06:39:20.915Z,13.10
2022-10-05T06:44:40.384Z,13.09
2022-10-05T06:50:13.665Z,13.02
2022-10-05T06:55:50.850Z,13.13
2022-10-05T07:01:16.380Z,13.43
2022-10-05T07:06:25.107Z,13.75
2022-10-05T07:11:44.551Z,14.22
2022-10-05T07:16:53.364Z,14.42
2022-10-05T07:22:21.092Z,14.33
2022-10-05T07:27:26.659Z,14.45
2022-10-05T07:32:50.230Z,14.52
2022-10-05T07:37:57.820Z,14.55
2022-10-05T07:43:40.098Z,14.90
2022-10-05T07:49:00.216Z,15.20
2022-10-05T07:54:25.243Z,15.26
2022-10-05T07:59:38.995Z,15.17
2022-10-05T08:04:51.753Z,15.52
2022-10-05T08:10:32.574Z,15.45
2022-10-05T08:15:47.566Z,15.56
2022-10-05T08:20:55.670Z,15.63
2022-10-05T08:26:14.212Z,16.00
2022-10-05T08:31:36.057Z,16.07
2022-10-05T08:36:41.086Z,16.09
2022-10-05T08:41:48.153Z,16.04
2022-10-05T08:47:11.826Z,16.45
2022-10-05T08:52:23.290Z,16.28
2022-10-05T08:57:28.259Z,16.51
2022-10-05T09:02:59.863Z,16.92
2022-10-05T09:08:10.742Z,17.33
2022-10-05T09:13:24.786Z,16.71
2022-10-05T09:19:00.213Z,17.02
2022-10-05T09:24:24.273Z,17.19
2022-10-05T09:29:47.512Z,17.43
2022-10-05T09:35:14.356Z,17.33
2022-10-05T09:40:47.788Z,17.60
2022-10-05T09:46:22.951Z,17.74
2022-10-05T09:51:25.231Z,17.77
2022-10-05T09:56:50.472Z,17.79
2022-10-05T10:02:20.542Z,17.80
2022-10-05T10:07:44.818Z,17.75
2022-10-05T10:12:57.086Z,17.51
2022-10-05T10:18:08.234Z,17.75
2022-10-05T10:23:19.610Z,18.07
2022-10-05T10:28:43.723Z,18.29
2022-10-05T10:34:01.791Z,18.25
2022-10-05T10:39:17.678Z,18.39
2022-10-05T10:44:23.075Z,18.17
2022-10-05T10:49:46.792Z,18.35
2022-10-05T10:55:01.255Z,18.50
2022-10-05T11:00:24.691Z,18.37
2022-10-05T11:05:55.868Z,18.72
2022-10-05T11:11:51.290Z,18.59
2022-10-05T11:17:20.518Z,18.64
2022-10-05T11:22:44.658Z,18.41
2022-10-05T11:28:03.445Z,18.45
2022-10-05T11:33:48.367Z,18.49
2022-10-05T11:39:06.035Z,18.82
2022-10-05T11:44:25.252Z,18.99
2022-10-05T11:49:34.848Z,18.97
2022-10-05T11:55:09.869Z,19.02
2022-10-05T12:00:17.002Z,18.89
2022-10-05T12:05:27.942Z,18.77
2022-10-05T12:10:32.880Z,18.84
2022-10-05T12:15:55.288Z,18.52
2022-10-05T12:21:27.711Z,18.41
2022-10-05T12:26:35.596Z,18.63
2022-10-05T12:31:49.749Z,18.35
2022-10-05T12:37:06.229Z,18.38
2022-10-05T12:42:24.177Z,18.38
2022-10-05T12:47:35.585Z,18.39
2022-10-05T12:53:00.926Z,18.30
2022-10-05T12:58:21.267Z,18.26
2022-10-05T13:03:31.657Z,18.19
2022-10-05T13:08:45.235Z,18.29
2022-10-05T13:13:56.598Z,18.33
2022-10-05T13:19:26.118Z,18.19
2022-10-05T13:24:34.201Z,18.25
2022-10-05T13:29:45.150Z,18.36
2022-10-05T13:35:10.611Z,18.11
2022-10-05T13:40:36.486Z,18.22
2022-10-05T13:45:57.123Z,18.00
2022-10-05T13:51:27.476Z,17.89
2022-10-05T13:56:31.643Z,18.00
2022-10-05T14:01:41.475Z,17.98
2022-10-05T14:06:44.618Z,17.92
2022-10-05T14:12:17.556Z,17.79
2022-10-05T14:17:33.051Z,17.73
2022-10-05T14:22:42.310Z,17.62
2022-10-05T14:27:56.647Z,17.59
2022-10-05T14:33:04.858Z,17.67
2022-10-05T14:38:50.859Z,17.65
2022-10-05T14:44:14.203Z,17.72
2022-10-05T14:49:28.210Z,17.66
2022-10-05T14:54:53.919Z,17.62
2022-10-05T15:00:12.475Z,17.61
2022-10-05T15:05:38.852Z,17.59
2022-10-05T15:10:50.390Z,17.45
2022-10-05T15:15:56.151Z,17.44
2022-10-05T15:21:13.573Z,17.40
2022-10-05T15:26:40.744Z,17.35
2022-10-05T15:31:46.299Z,17.23
2022-10-05T15:36:48.625Z,17.07
2022-10-05T15:42:00.690Z,17.06
2022-10-05T15:47:08.306Z,16.96
2022-10-05T15:52:17.763Z,16.88
2022-10-05T15:57:26.595Z,16.81
2022-10-05T16:03:01.595Z,16.77
2022-10-05T16:08:22.656Z,16.58
2022-10-05T16:13:52.633Z,16.62
2022-10-05T16:19:12.681Z,16.43
2022-10-05T16:24:41.341Z,16.35
2022-10-05T16:29:55.905Z,16.30
2022-10-05T16:35:19.997Z,16.17
2022-10-05T16:40:30.239Z,16.10
2022-10-05T16:45:45.487Z,16.15
2022-10-05T16:51:02.290Z,16.02
2022-10-05T16:56:11.204Z,15.96
2022-10-05T17:01:52.863Z,15.93
2022-10-05T17:07:17.177Z,15.84
2022-10-05T17:12:41.045Z,15.92
2022-10-05T17:18:19.262Z,15.75
2022-10-05T17:23:43.545Z,15.68
2022-10-05T17:28:51.729Z,15.57
2022-10-05T17:34:00.229Z,15.57
2022-10-05T17:39:21.202Z,15.46
2022-10-05T17:44:24.982Z,15.38
2022-10-05T17:50:13.862Z,15.41
2022-10-05T17:55:34.569Z,15.35
2022-10-05T18:00:56.604Z,15.29
2022-10-05T18:06:28.309Z,15.23
2022-10-05T18:11:35.502Z,15.28
2022-10-05T18:17:00.922Z,15.33
2022-10-05T18:22:30.462Z,15.40
2022-10-05T18:28:00.488Z,15.41
2022-10-05T18:33:21.131Z,15.29
2022-10-05T18:38:45.515Z,15.56
2022-10-05T18:43:53.689Z,15.45
2022-10-05T18:49:15.252Z,15.42
2022-10-05T18:54:42.074Z,15.44
2022-10-05T19:00:01.595Z,15.29
2022-10-05T19:05:47.635Z,15.24
2022-10-05T19:10:55.722Z,15.14
2022-10-05T19:16:06.315Z,15.17
2022-10-05T19:21:48.799Z,15.12
2022-10-05T19:27:06.878Z,15.17
2022-10-05T19:32:29.500Z,15.22
2022-10-05T19:37:47.635Z,15.00
2022-10-05T19:43:19.086Z,14.97
2022-10-05T19:48:36.414Z,14.99
2022-10-05T19:53:40.647Z,15.06
2022-10-05T19:58:42.950Z,15.18
2022-10-05T20:03:48.016Z,15.04
2022-10-05T20:08:52.064Z,15.09
2022-10-05T20:13:55.161Z,15.22
2022-10-05T20:19:16.747Z,15.09
2022-10-05T20:24:27.225Z,15.03
2022-10-05T20:29:30.834Z,15.10
2022-10-05T20:34:37.879Z,14.91
2022-10-05T20:39:40.878Z,14.83
2022-10-05T20:44:43.226Z,14.81
2022-10-05T20:49:45.593Z,14.76
2022-10-05T20:54:48.142Z,14.63
2022-10-05T20:59:51.589Z,14.71
2022-10-05T21:04:53.983Z,14.65
2022-10-05T21:09:56.447Z,14.70
2022-10-05T21:14:59.905Z,14.73
2022-10-05T21:20:02.674Z,14.60
2022-10-05T21:25:05.332Z,14.41
2022-10-05T21:30:08.656Z,14.28
2022-10-05T21:35:11.029Z,14.33
2022-10-05T21:40:13.379Z,14.29
2022-10-05T21:45:15.819Z,14.35
2022-10-05T21:50:18.233Z,14.16
2022-10-05T21:55:21.209Z,14.20
2022-10-05T22:00:23.648Z,14.23
2022-10-05T22:05:26.148Z,14.13
2022-10-05T22:10:29.237Z,14.06
2022-10-05T22:15:32.012Z,13.84
2022-10-05T22:20:35.298Z,13.66
2022-10-05T22:25:37.646Z,13.74
2022-10-05T22:30:40.306Z,13.51
2022-10-05T22:35:42.641Z,13.65
2022-10-05T22:40:44.985Z,13.61
2022-10-05T22:45:47.372Z,13.59
2022-10-05T22:50:49.807Z,13.58
2022-10-05T22:55:52.162Z,13.51
2022-10-05T23:00:58.324Z,13.53
2022-10-05T23:06:03.768Z,13.68
2022-10-05T23:11:07.519Z,13.52
2022-10-05T23:16:10.849Z,13.53
2022-10-05T23:21:13.209Z,13.49
2022-10-05T23:26:16.617Z,13.48
2022-10-05T23:31:24.714Z,13.52
2022-10-05T23:36:33.095Z,13.51
2022-10-05T23:41:35.402Z,13.39
2022-10-05T23:46:37.753Z,13.42
2022-10-05T23:51:40.099Z,13.48
2022-10-05T23:56:42.793Z,13.31
